Time;durP1;ratioP1;P1;durP2;ratioP2;P2;SDS_P1;SDS_P2;PMS_P1;PMS_P2;Temp;Humidity;BMP_temperature;BMP_pressure;BME280_temperature;BME280_humidity;BME280_pressure;Samples;Min_cycle;Max_cycle;Signal;HPM_P1;HPM_P2
2022/09/07 00:01:36;;;;;;;11.15;6.57;;;20.30;97.00;;;;;;5104526;27;37294;-57
2022/09/07 00:04:03;;;;;;;12.60;6.95;;;20.30;97.50;;;;;;5107215;27;36381;-57
2022/09/07 00:06:33;;;;;;;10.55;6.18;;;20.30;97.60;;;;;;5106804;27;36506;-57
2022/09/07 00:09:01;;;;;;;11.00;6.57;;;20.30;97.70;;;;;;5107749;27;37633;-57
2022/09/07 00:11:28;;;;;;;11.82;6.30;;;20.20;97.60;;;;;;5108348;27;36140;-57
2022/09/07 00:13:56;;;;;;;10.18;7.07;;;20.20;97.70;;;;;;5108479;27;38244;-57
2022/09/07 00:16:28;;;;;;;10.18;6.25;;;20.10;97.90;;;;;;5107060;27;37535;-57
2022/09/07 00:18:58;;;;;;;9.90;6.72;;;20.20;97.90;;;;;;5104788;27;39448;-57
2022/09/07 00:21:26;;;;;;;11.35;7.28;;;20.10;97.90;;;;;;5107381;27;37934;-57
2022/09/07 00:23:54;;;;;;;11.43;7.53;;;20.10;98.00;;;;;;5106648;27;36646;-57
2022/09/07 00:26:24;;;;;;;9.38;6.70;;;20.00;97.90;;;;;;5106101;27;37686;-57
2022/09/07 00:28:52;;;;;;;10.27;7.10;;;20.00;98.00;;;;;;5105231;27;37840;-57
2022/09/07 00:31:22;;;;;;;15.32;7.97;;;20.00;98.00;;;;;;5105718;27;38242;-57
2022/09/07 00:33:52;;;;;;;9.73;7.40;;;20.00;97.90;;;;;;5106925;27;36773;-57
2022/09/07 00:36:20;;;;;;;18.38;8.60;;;20.00;98.20;;;;;;5106834;27;36587;-57
2022/09/07 00:38:48;;;;;;;11.82;7.40;;;19.90;98.30;;;;;;5107054;27;38339;-57
2022/09/07 00:41:16;;;;;;;11.45;7.30;;;19.90;98.70;;;;;;5105690;27;37360;-57
2022/09/07 00:43:46;;;;;;;10.48;6.82;;;19.90;98.50;;;;;;5105350;27;36049;-57
2022/09/07 00:46:16;;;;;;;11.05;7.45;;;19.90;98.40;;;;;;5106133;27;37457;-57
2022/09/07 00:48:51;;;;;;;13.40;7.63;;;19.80;98.50;;;;;;5105626;27;38116;-57
2022/09/07 00:51:24;;;;;;;10.65;7.47;;;19.80;98.50;;;;;;5106185;27;37603;-57
2022/09/07 00:53:57;;;;;;;11.52;8.07;;;19.80;98.40;;;;;;5105161;27;36494;-57
2022/09/07 00:56:28;;;;;;;10.77;7.33;;;19.80;98.20;;;;;;5104714;27;37563;-57
2022/09/07 00:58:57;;;;;;;13.60;7.68;;;19.70;98.20;;;;;;5103654;27;37635;-57
2022/09/07 01:01:25;;;;;;;15.20;8.50;;;19.70;98.30;;;;;;5105047;27;37641;-57
2022/09/07 01:03:54;;;;;;;11.05;7.68;;;19.70;98.40;;;;;;5106654;27;36602;-57
2022/09/07 01:06:27;;;;;;;10.57;7.35;;;19.60;98.40;;;;;;5105587;27;37633;-57
2022/09/07 01:08:56;;;;;;;14.55;6.93;;;19.60;98.40;;;;;;5105652;27;36538;-57
2022/09/07 01:11:24;;;;;;;13.00;8.23;;;19.60;98.30;;;;;;5104363;27;37562;-57
2022/09/07 01:13:53;;;;;;;14.25;8.70;;;19.60;98.30;;;;;;5104359;27;35405;-57
2022/09/07 01:16:31;;;;;;;13.73;8.80;;;19.60;98.60;;;;;;5105770;27;39374;-57
2022/09/07 01:19:24;;;;;;;14.55;8.30;;;19.60;98.70;;;;;;5106454;27;37871;-57
2022/09/07 01:22:07;;;;;;;13.00;7.95;;;19.60;98.90;;;;;;5105828;27;38805;-57
2022/09/07 01:24:40;;;;;;;;;;;19.60;99.00;;;;;;5107097;27;38024;-57
2022/09/07 01:27:48;;;;;;;10.55;8.23;;;19.50;99.00;;;;;;5105546;27;37823;-57
2022/09/07 01:30:18;;;;;;;11.73;9.07;;;19.60;99.20;;;;;;5068693;27;36673;-57
2022/09/07 01:33:02;;;;;;;14.77;9.18;;;19.60;99.10;;;;;;5104796;27;37349;-57
2022/09/07 01:35:36;;;;;;;14.13;8.65;;;19.50;99.50;;;;;;5106572;27;37764;-57
2022/09/07 01:38:10;;;;;;;21.38;11.43;;;19.40;99.90;;;;;;5105488;27;38891;-57
2022/09/07 01:40:45;;;;;;;21.38;10.80;;;19.40;99.90;;;;;;5106799;27;37833;-58
2022/09/07 01:43:21;;;;;;;22.80;10.95;;;19.30;99.90;;;;;;5103556;27;39900;-58
2022/09/07 01:45:49;;;;;;;21.10;12.27;;;19.20;99.90;;;;;;5106356;27;36584;-58
2022/09/07 01:48:18;;;;;;;14.85;10.38;;;19.20;99.90;;;;;;5103284;27;38753;-58
2022/09/07 01:50:51;;;;;;;14.18;10.18;;;19.10;99.90;;;;;;5105287;27;37664;-58
2022/09/07 01:53:22;;;;;;;14.77;9.43;;;19.10;99.90;;;;;;5104509;27;37431;-57
2022/09/07 01:55:56;;;;;;;13.35;9.25;;;19.10;99.90;;;;;;5105213;27;38175;-58
2022/09/07 01:58:29;;;;;;;10.77;8.77;;;19.20;99.90;;;;;;5104661;27;37040;-58
2022/09/07 02:01:00;;;;;;;10.30;8.02;;;19.20;99.90;;;;;;5105451;27;37780;-58
2022/09/07 02:03:32;;;;;;;13.13;8.00;;;19.20;99.90;;;;;;5104906;27;37952;-58
2022/09/07 02:06:06;;;;;;;8.48;5.70;;;19.10;99.90;;;;;;5105612;27;37133;-58
2022/09/07 02:08:41;;;;;;;9.35;5.95;;;19.10;99.90;;;;;;5105282;27;37482;-58
2022/09/07 02:11:12;;;;;;;11.60;5.38;;;19.10;99.90;;;;;;5105215;27;37729;-58
2022/09/07 02:13:45;;;;;;;7.60;4.57;;;19.20;99.90;;;;;;5105127;27;37947;-57
2022/09/07 02:16:16;;;;;;;7.65;4.00;;;19.20;99.90;;;;;;5105290;27;38132;-58
2022/09/07 02:18:46;;;;;;;9.13;3.92;;;19.10;99.90;;;;;;5103237;27;37483;-58
2022/09/07 02:21:17;;;;;;;8.60;3.72;;;19.20;99.90;;;;;;5104496;27;37535;-58
2022/09/07 02:23:48;;;;;;;8.05;3.63;;;19.20;99.90;;;;;;5103088;27;36317;-57
2022/09/07 02:26:19;;;;;;;6.47;3.15;;;19.10;99.90;;;;;;5105193;27;36407;-57
2022/09/07 02:28:48;;;;;;;7.03;2.90;;;19.10;99.90;;;;;;5105226;27;37603;-58
2022/09/07 02:31:16;;;;;;;6.43;2.90;;;19.10;99.90;;;;;;5105003;27;38615;-58
2022/09/07 02:33:43;;;;;;;4.43;1.98;;;19.10;99.90;;;;;;5104689;27;38530;-58
2022/09/07 02:36:12;;;;;;;4.85;1.95;;;19.00;99.90;;;;;;5104027;27;36381;-58
2022/09/07 02:38:40;;;;;;;4.20;1.88;;;19.00;99.90;;;;;;5104270;27;39206;-57
2022/09/07 02:41:32;;;;;;;4.10;2.20;;;19.00;99.90;;;;;;5106038;27;38931;-57
2022/09/07 02:44:04;;;;;;;3.92;2.30;;;19.00;99.90;;;;;;5102923;27;37156;-59
2022/09/07 02:46:45;;;;;;;4.32;2.42;;;19.00;99.90;;;;;;5102732;27;35250;-58
2022/09/07 02:49:23;;;;;;;6.35;2.72;;;19.00;99.90;;;;;;5104479;27;37819;-58
2022/09/07 02:52:01;;;;;;;7.35;3.05;;;19.00;99.90;;;;;;5104087;27;37473;-58
2022/09/07 02:54:43;;;;;;;6.55;2.92;;;19.00;99.90;;;;;;5104451;27;37696;-57
2022/09/07 02:57:22;;;;;;;6.65;3.10;;;18.90;99.90;;;;;;5103916;27;36540;-58
2022/09/07 03:00:03;;;;;;;5.95;3.45;;;18.90;99.90;;;;;;5105375;27;37438;-58
2022/09/07 03:02:41;;;;;;;6.35;3.55;;;18.80;99.90;;;;;;5102409;27;38410;-58
2022/09/07 03:05:16;;;;;;;8.35;3.83;;;18.80;99.90;;;;;;5104987;27;38070;-58
2022/09/07 03:07:48;;;;;;;5.97;3.75;;;18.80;99.90;;;;;;5104101;27;36761;-58
2022/09/07 03:10:17;;;;;;;8.45;4.15;;;18.80;99.90;;;;;;5105114;27;38250;-58
2022/09/07 03:12:47;;;;;;;7.45;4.15;;;18.80;99.90;;;;;;5103395;27;37615;-58
2022/09/07 03:15:19;;;;;;;7.25;4.22;;;18.80;99.90;;;;;;5104406;27;38677;-58
2022/09/07 03:17:46;;;;;;;7.53;4.05;;;18.80;99.90;;;;;;5103512;27;36624;-58
2022/09/07 03:20:15;;;;;;;8.07;4.00;;;18.90;99.90;;;;;;5104923;27;37614;-58
2022/09/07 03:22:42;;;;;;;11.13;4.40;;;18.90;99.90;;;;;;5102335;27;38335;-58
2022/09/07 03:25:10;;;;;;;6.85;4.00;;;18.90;99.90;;;;;;5103764;27;36384;-58
2022/09/07 03:27:37;;;;;;;6.90;4.07;;;18.90;99.90;;;;;;5103657;27;36711;-58
2022/09/07 03:30:06;;;;;;;6.50;4.18;;;18.90;99.90;;;;;;5104095;27;38002;-58
2022/09/07 03:32:37;;;;;;;7.68;4.50;;;18.90;99.90;;;;;;5102980;27;37798;-58
2022/09/07 03:35:06;;;;;;;7.70;4.15;;;18.90;99.90;;;;;;5104478;27;38174;-58
2022/09/07 03:37:35;;;;;;;8.20;5.78;;;18.90;99.90;;;;;;5108053;27;37264;-58
2022/09/07 03:40:04;;;;;;;7.88;4.78;;;18.80;99.90;;;;;;5107739;27;37690;-58
2022/09/07 03:42:31;;;;;;;7.25;4.75;;;18.80;99.90;;;;;;5107240;27;37815;-58
2022/09/07 03:44:58;;;;;;;8.13;4.75;;;18.80;99.90;;;;;;5107074;27;37250;-58
2022/09/07 03:47:25;;;;;;;8.27;4.60;;;18.80;99.90;;;;;;5107452;27;36909;-58
2022/09/07 03:49:54;;;;;;;6.97;4.45;;;18.80;99.90;;;;;;5107634;27;37604;-58
2022/09/07 03:52:22;;;;;;;7.88;4.53;;;18.80;99.90;;;;;;5106990;27;37492;-58
2022/09/07 03:54:49;;;;;;;7.97;4.57;;;18.80;99.90;;;;;;5105924;27;36548;-58
2022/09/07 03:57:19;;;;;;;8.07;3.92;;;18.80;99.90;;;;;;5106285;27;36646;-58
2022/09/07 03:59:46;;;;;;;7.15;4.40;;;18.70;99.90;;;;;;5107809;27;38823;-58
2022/09/07 04:02:14;;;;;;;6.88;4.22;;;18.70;99.90;;;;;;5107867;27;36502;-58
2022/09/07 04:04:42;;;;;;;9.63;3.90;;;18.70;99.90;;;;;;5107226;27;37176;-58
2022/09/07 04:07:10;;;;;;;9.25;4.22;;;18.80;99.90;;;;;;5105946;27;36576;-58
2022/09/07 04:09:38;;;;;;;5.40;3.95;;;18.80;99.90;;;;;;5106818;27;37528;-58
2022/09/07 04:12:06;;;;;;;7.38;4.25;;;18.80;99.90;;;;;;5105293;27;38206;-58
2022/09/07 04:14:33;;;;;;;6.57;3.47;;;18.70;99.90;;;;;;5105915;27;37581;-58
2022/09/07 04:17:00;;;;;;;6.43;3.65;;;18.80;99.90;;;;;;5105821;27;37297;-58
2022/09/07 04:19:29;;;;;;;6.78;3.83;;;18.80;99.90;;;;;;5107188;27;38198;-58
2022/09/07 04:21:56;;;;;;;7.05;3.85;;;18.80;99.90;;;;;;5106599;27;36533;-58
2022/09/07 04:24:25;;;;;;;7.00;3.47;;;18.70;99.90;;;;;;5106430;27;38130;-58
2022/09/07 04:26:52;;;;;;;9.25;3.92;;;18.70;99.90;;;;;;5106217;27;36168;-58
2022/09/07 04:29:19;;;;;;;6.03;3.90;;;18.80;99.90;;;;;;5106579;27;38559;-58
2022/09/07 04:31:47;;;;;;;7.07;4.13;;;18.70;99.90;;;;;;5105260;27;37397;-58
2022/09/07 04:34:14;;;;;;;6.53;3.60;;;18.70;99.90;;;;;;5105554;27;37269;-58
2022/09/07 04:36:41;;;;;;;5.82;3.95;;;18.70;99.90;;;;;;5103432;27;38536;-58
2022/09/07 04:39:10;;;;;;;7.82;4.72;;;18.70;99.90;;;;;;5104144;27;36319;-58
2022/09/07 04:41:39;;;;;;;7.15;3.92;;;18.70;99.90;;;;;;5105747;27;36648;-58
2022/09/07 04:44:06;;;;;;;7.45;4.03;;;18.70;99.90;;;;;;5108268;27;37301;-58
2022/09/07 04:46:36;;;;;;;7.07;4.20;;;18.60;99.90;;;;;;5105771;27;35524;-58
2022/09/07 04:49:05;;;;;;;6.80;3.95;;;18.60;99.90;;;;;;5105987;27;36366;-58
2022/09/07 04:51:33;;;;;;;6.70;4.00;;;18.60;99.90;;;;;;5106481;27;37831;-58
2022/09/07 04:54:02;;;;;;;5.93;4.03;;;18.50;99.90;;;;;;5106314;27;37232;-58
2022/09/07 04:56:30;;;;;;;7.28;4.43;;;18.50;99.90;;;;;;5105802;27;37903;-58
2022/09/07 04:59:00;;;;;;;8.15;4.25;;;18.40;99.90;;;;;;5106337;27;37438;-58
2022/09/07 05:01:27;;;;;;;7.85;4.53;;;18.40;99.90;;;;;;5106765;27;37711;-58
2022/09/07 05:03:55;;;;;;;8.73;4.70;;;18.40;99.90;;;;;;5106745;27;36954;-58
2022/09/07 05:06:23;;;;;;;9.90;5.32;;;18.40;99.90;;;;;;5105377;27;36598;-58
2022/09/07 05:08:52;;;;;;;9.07;4.90;;;18.40;99.90;;;;;;5100704;27;39357;-58
2022/09/07 05:11:20;;;;;;;10.35;5.53;;;18.40;99.90;;;;;;5101935;27;37181;-58
2022/09/07 05:13:47;;;;;;;11.30;6.72;;;18.40;99.90;;;;;;5103835;27;39803;-58
2022/09/07 05:16:18;;;;;;;10.68;5.72;;;18.40;99.90;;;;;;5101520;27;37877;-58
2022/09/07 05:18:49;;;;;;;8.93;5.95;;;18.40;99.90;;;;;;5104652;27;37337;-58
2022/09/07 05:21:18;;;;;;;10.30;5.93;;;18.40;99.90;;;;;;5105080;27;37244;-58
2022/09/07 05:23:48;;;;;;;8.88;6.57;;;18.50;99.90;;;;;;5104877;27;38337;-58
2022/09/07 05:26:16;;;;;;;9.80;7.07;;;18.40;99.90;;;;;;5103772;27;36566;-58
2022/09/07 05:28:43;;;;;;;10.18;6.85;;;18.50;99.90;;;;;;5102590;27;37389;-58
2022/09/07 05:31:13;;;;;;;12.02;7.40;;;18.40;99.90;;;;;;5103099;27;37269;-58
2022/09/07 05:33:45;;;;;;;12.23;7.30;;;18.40;99.90;;;;;;5104626;27;37475;-58
2022/09/07 05:36:12;;;;;;;10.67;8.00;;;18.50;99.90;;;;;;5104522;27;37354;-58
2022/09/07 05:38:40;;;;;;;12.15;8.52;;;18.40;99.90;;;;;;5103061;27;36339;-58
2022/09/07 05:41:11;;;;;;;13.23;8.95;;;18.50;99.90;;;;;;5104577;27;38938;-58
2022/09/07 05:43:38;;;;;;;12.30;8.70;;;18.50;99.90;;;;;;5104292;27;37713;-57
2022/09/07 05:46:06;;;;;;;14.00;11.13;;;18.50;99.90;;;;;;5103937;27;37213;-58
2022/09/07 05:48:33;;;;;;;15.45;10.20;;;18.50;99.90;;;;;;5103925;27;37368;-57
2022/09/07 05:51:02;;;;;;;12.27;9.90;;;18.60;99.90;;;;;;5104480;27;37997;-58
2022/09/07 05:53:30;;;;;;;13.43;9.52;;;18.60;99.90;;;;;;5103996;27;37764;-58
2022/09/07 05:55:59;;;;;;;14.68;10.07;;;18.60;99.90;;;;;;5103309;27;36570;-58
2022/09/07 05:58:26;;;;;;;13.15;10.00;;;18.60;99.90;;;;;;5102576;27;38573;-58
2022/09/07 06:00:57;;;;;;;13.10;10.00;;;18.60;99.90;;;;;;5103660;27;39151;-58
2022/09/07 06:03:24;;;;;;;14.60;10.13;;;18.60;99.90;;;;;;5104252;27;39155;-58
2022/09/07 06:05:59;;;;;;;13.75;10.40;;;18.60;99.90;;;;;;5103991;27;36864;-58
2022/09/07 06:08:28;;;;;;;12.30;10.80;;;18.60;99.90;;;;;;5105443;27;38576;-58
2022/09/07 06:10:56;;;;;;;14.82;11.27;;;18.70;99.90;;;;;;5105405;27;36424;-58
2022/09/07 06:13:23;;;;;;;13.60;10.20;;;18.70;99.90;;;;;;5105124;27;38527;-58
2022/09/07 06:15:50;;;;;;;13.88;11.20;;;18.70;99.90;;;;;;5102951;27;37300;-58
2022/09/07 06:18:18;;;;;;;12.85;9.85;;;18.70;99.90;;;;;;5105288;27;37524;-58
2022/09/07 06:20:45;;;;;;;15.13;11.55;;;18.70;99.90;;;;;;5106168;27;38237;-58
2022/09/07 06:23:12;;;;;;;13.88;11.23;;;18.70;99.90;;;;;;5105336;27;36095;-58
2022/09/07 06:25:48;;;;;;;12.88;11.13;;;18.70;99.90;;;;;;5104715;27;36831;-58
2022/09/07 06:28:15;;;;;;;13.55;11.52;;;18.70;99.90;;;;;;5105502;27;40256;-58
2022/09/07 06:30:42;;;;;;;13.02;11.07;;;18.70;99.90;;;;;;5106120;27;38361;-58
2022/09/07 06:33:09;;;;;;;15.18;11.88;;;18.80;99.90;;;;;;5105517;27;37821;-58
2022/09/07 06:35:37;;;;;;;14.07;12.05;;;18.70;99.90;;;;;;5104596;27;37296;-57
2022/09/07 06:38:04;;;;;;;14.75;11.70;;;18.90;99.90;;;;;;5104844;27;38917;-58
2022/09/07 06:40:33;;;;;;;15.45;11.30;;;18.80;99.90;;;;;;5105729;27;37736;-58
2022/09/07 06:43:02;;;;;;;15.77;12.95;;;18.80;99.90;;;;;;5105282;27;37325;-58
2022/09/07 06:45:29;;;;;;;13.73;11.15;;;18.80;99.90;;;;;;5103133;27;36881;-58
2022/09/07 06:47:57;;;;;;;15.73;13.40;;;18.80;99.90;;;;;;5105735;27;38001;-58
2022/09/07 06:50:26;;;;;;;16.13;12.98;;;18.80;99.90;;;;;;5105622;27;38717;-58
2022/09/07 06:52:53;;;;;;;15.98;13.43;;;18.70;99.90;;;;;;5105487;27;40065;-58
2022/09/07 06:55:21;;;;;;;16.80;12.98;;;18.80;99.90;;;;;;5104459;27;39162;-58
2022/09/07 06:57:51;;;;;;;17.20;15.25;;;18.80;99.90;;;;;;5103953;27;36785;-58
2022/09/07 07:00:20;;;;;;;20.35;15.48;;;18.80;99.90;;;;;;5105896;27;37754;-58
2022/09/07 07:02:47;;;;;;;17.70;15.80;;;18.80;99.90;;;;;;5105185;27;38289;-58
2022/09/07 07:05:15;;;;;;;18.73;16.17;;;18.80;99.90;;;;;;5105700;27;37630;-58
2022/09/07 07:07:42;;;;;;;22.67;16.63;;;18.80;99.90;;;;;;5104292;27;37452;-58
2022/09/07 07:10:09;;;;;;;19.65;17.40;;;18.80;99.90;;;;;;5102814;27;39870;-57
2022/09/07 07:12:37;;;;;;;17.75;15.45;;;18.80;99.90;;;;;;5104250;27;36760;-58
2022/09/07 07:15:05;;;;;;;24.02;17.10;;;18.80;99.90;;;;;;5103849;27;36817;-58
2022/09/07 07:17:34;;;;;;;17.92;15.55;;;18.80;99.90;;;;;;5103242;27;39027;-58
2022/09/07 07:20:01;;;;;;;18.25;16.30;;;18.80;99.90;;;;;;5103086;27;36528;-58
2022/09/07 07:22:29;;;;;;;18.35;16.30;;;18.80;99.90;;;;;;5104756;27;39711;-57
2022/09/07 07:24:56;;;;;;;17.67;15.85;;;18.80;99.90;;;;;;5104473;27;36903;-58
2022/09/07 07:27:23;;;;;;;17.92;15.07;;;18.80;99.90;;;;;;5104670;27;37637;-58
2022/09/07 07:29:51;;;;;;;18.17;13.88;;;18.80;99.90;;;;;;5103855;27;38060;-58
2022/09/07 07:32:18;;;;;;;19.02;14.98;;;18.80;99.90;;;;;;5104706;27;37471;-58
2022/09/07 07:34:47;;;;;;;20.17;14.00;;;18.80;99.90;;;;;;5105125;27;36349;-58
2022/09/07 07:37:15;;;;;;;20.92;14.93;;;18.80;99.90;;;;;;5103007;27;36254;-58
2022/09/07 07:39:43;;;;;;;18.92;14.50;;;18.80;99.90;;;;;;5102812;27;39267;-58
2022/09/07 07:42:11;;;;;;;17.45;14.45;;;18.90;99.90;;;;;;5102951;27;37284;-58
2022/09/07 07:44:38;;;;;;;19.85;13.95;;;18.80;99.90;;;;;;5103636;27;36946;-58
2022/09/07 07:47:05;;;;;;;15.27;13.38;;;18.80;99.90;;;;;;5101065;27;38948;-58
2022/09/07 07:49:33;;;;;;;18.20;14.77;;;18.80;99.90;;;;;;5102121;27;37766;-58
2022/09/07 07:52:02;;;;;;;18.48;14.32;;;18.80;99.90;;;;;;5102289;27;37314;-58
2022/09/07 07:54:29;;;;;;;18.75;14.60;;;18.80;99.90;;;;;;5103042;27;39063;-58
2022/09/07 07:56:57;;;;;;;19.45;16.70;;;18.80;99.90;;;;;;5102058;27;36434;-58
2022/09/07 07:59:25;;;;;;;17.60;14.88;;;18.80;99.90;;;;;;5102498;27;37770;-58
2022/09/07 08:01:52;;;;;;;18.25;15.85;;;18.90;99.90;;;;;;5103055;27;38321;-58
2022/09/07 08:04:19;;;;;;;18.90;16.02;;;18.80;99.90;;;;;;5101813;27;35549;-58
2022/09/07 08:06:46;;;;;;;19.88;16.20;;;18.80;99.90;;;;;;5102858;27;37997;-58
2022/09/07 08:09:15;;;;;;;22.65;17.52;;;18.90;99.90;;;;;;5101946;27;38195;-58
2022/09/07 08:11:43;;;;;;;22.00;16.38;;;18.90;99.90;;;;;;5101394;27;38791;-58
2022/09/07 08:14:10;;;;;;;24.30;17.13;;;18.90;99.90;;;;;;5101082;27;36656;-58
2022/09/07 08:16:38;;;;;;;19.73;16.70;;;18.90;99.90;;;;;;5101265;27;37387;-58
2022/09/07 08:19:05;;;;;;;20.60;17.23;;;19.00;99.90;;;;;;5101064;27;37820;-58
2022/09/07 08:21:32;;;;;;;21.17;17.83;;;19.00;99.90;;;;;;5102462;27;36362;-58
2022/09/07 08:24:00;;;;;;;22.40;17.67;;;19.00;99.90;;;;;;5106478;27;37270;-58
2022/09/07 08:26:28;;;;;;;20.90;16.80;;;19.00;99.90;;;;;;5105174;27;37735;-58
2022/09/07 08:28:56;;;;;;;23.15;17.90;;;19.00;99.90;;;;;;5105192;27;37873;-58
2022/09/07 08:31:24;;;;;;;22.63;18.13;;;19.10;99.90;;;;;;5106415;27;36354;-58
2022/09/07 08:33:51;;;;;;;23.10;18.65;;;19.10;99.90;;;;;;5107418;27;36770;-58
2022/09/07 08:36:20;;;;;;;20.23;18.10;;;19.10;99.90;;;;;;5107678;27;38256;-58
2022/09/07 08:38:48;;;;;;;26.05;19.50;;;19.10;99.90;;;;;;5107613;27;37493;-58
2022/09/07 08:41:48;;;;;;;20.35;17.55;;;19.10;99.90;;;;;;5107075;27;38167;-58
2022/09/07 08:44:22;;;;;;;23.85;20.08;;;19.20;99.90;;;;;;5107269;27;36865;-58
2022/09/07 08:46:54;;;;;;;24.35;19.75;;;19.10;99.90;;;;;;5106679;27;38877;-58
2022/09/07 08:49:27;;;;;;;25.73;20.27;;;19.10;99.90;;;;;;5107049;27;38666;-58
2022/09/07 08:52:01;;;;;;;23.15;19.25;;;19.10;99.90;;;;;;5106287;27;36360;-58
2022/09/07 08:54:29;;;;;;;21.17;18.38;;;19.10;99.90;;;;;;5107685;27;36883;-58
2022/09/07 08:57:02;;;;;;;20.58;18.27;;;19.20;99.90;;;;;;5106531;27;37833;-58
2022/09/07 08:59:32;;;;;;;;;;;19.20;99.90;;;;;;5106611;27;37638;-58
2022/09/07 09:01:59;;;;;;;24.85;19.58;;;19.20;99.90;;;;;;5106925;27;36951;-58
2022/09/07 09:04:29;;;;;;;25.27;20.02;;;19.20;99.90;;;;;;5105811;27;37024;-58
2022/09/07 09:07:09;;;;;;;24.67;21.20;;;19.30;99.90;;;;;;5106588;27;37830;-58
2022/09/07 09:09:51;;;;;;;23.33;20.58;;;19.40;99.90;;;;;;5106002;27;37895;-58
2022/09/07 09:12:30;;;;;;;24.70;20.25;;;19.40;99.90;;;;;;5106737;27;36376;-58
2022/09/07 09:15:08;;;;;;;23.52;20.85;;;19.40;99.90;;;;;;5106615;27;36796;-58
2022/09/07 09:17:40;;;;;;;25.05;19.65;;;19.50;99.90;;;;;;5106146;27;37830;-58
2022/09/07 09:20:18;;;;;;;24.88;19.40;;;19.50;99.90;;;;;;5106410;27;38723;-58
2022/09/07 09:22:46;;;;;;;21.38;18.65;;;19.60;99.90;;;;;;5106285;27;36206;-58
2022/09/07 09:25:18;;;;;;;21.25;19.05;;;19.60;99.90;;;;;;5106271;27;37540;-58
2022/09/07 09:27:47;;;;;;;20.70;18.50;;;19.60;99.90;;;;;;5103236;27;36352;-58
2022/09/07 09:30:16;;;;;;;23.35;19.45;;;19.70;99.90;;;;;;5105893;27;37640;-58
2022/09/07 09:32:45;;;;;;;23.27;20.83;;;19.80;99.90;;;;;;5105226;27;37340;-58
2022/09/07 09:35:17;;;;;;;22.15;19.70;;;19.90;99.90;;;;;;5105668;27;37305;-58
2022/09/07 09:37:44;;;;;;;22.88;18.55;;;20.10;99.90;;;;;;5105702;27;37660;-58
2022/09/07 09:40:20;;;;;;;23.20;17.83;;;20.20;99.90;;;;;;5106827;27;38339;-58
2022/09/07 09:43:00;;;;;;;22.42;20.05;;;20.30;99.90;;;;;;5106150;27;37517;-58
2022/09/07 09:45:29;;;;;;;28.60;22.13;;;20.30;99.90;;;;;;5106164;27;36905;-58
2022/09/07 09:47:58;;;;;;;22.90;18.95;;;20.30;99.90;;;;;;5106755;27;37776;-58
2022/09/07 09:50:31;;;;;;;19.83;16.45;;;20.30;99.90;;;;;;5105337;27;37963;-58
2022/09/07 09:53:01;;;;;;;20.27;18.08;;;20.30;99.90;;;;;;5102169;27;37716;-58
2022/09/07 09:55:31;;;;;;;20.48;17.98;;;20.40;99.90;;;;;;5103090;27;37616;-58
2022/09/07 09:58:01;;;;;;;18.27;16.17;;;20.50;99.90;;;;;;5101964;27;38068;-58
2022/09/07 10:00:30;;;;;;;14.23;12.73;;;20.60;99.90;;;;;;5102106;27;38183;-58
2022/09/07 10:03:04;;;;;;;14.77;13.27;;;20.70;99.90;;;;;;5103700;27;36415;-59
2022/09/07 10:05:36;;;;;;;13.75;12.00;;;20.80;99.90;;;;;;5103873;27;36727;-58
2022/09/07 10:08:15;;;;;;;13.20;11.00;;;20.70;99.90;;;;;;5104110;27;37165;-58
2022/09/07 10:10:58;;;;;;;15.15;10.60;;;20.70;99.90;;;;;;5102220;27;38680;-58
2022/09/07 10:13:30;;;;;;;11.63;9.88;;;20.70;99.90;;;;;;5100933;27;36210;-58
2022/09/07 10:15:59;;;;;;;12.37;10.40;;;20.70;99.90;;;;;;5101272;27;36717;-58
2022/09/07 10:18:34;;;;;;;11.00;9.00;;;20.80;99.90;;;;;;5101415;27;37452;-58
2022/09/07 10:21:24;;;;;;;9.73;8.23;;;20.80;99.90;;;;;;5103007;27;37557;-58
2022/09/07 10:23:57;;;;;;;10.48;8.02;;;20.80;99.90;;;;;;5103162;27;36756;-59
2022/09/07 10:26:32;;;;;;;9.98;7.45;;;20.80;99.90;;;;;;5102746;27;35226;-58
2022/09/07 10:29:15;;;;;;;8.95;7.30;;;20.80;99.90;;;;;;5100540;27;38047;-58
2022/09/07 10:31:57;;;;;;;10.07;7.22;;;21.00;99.90;;;;;;5101770;27;36579;-58
2022/09/07 10:34:31;;;;;;;11.38;8.65;;;21.30;99.90;;;;;;5102822;27;37585;-58
2022/09/07 10:37:03;;;;;;;9.68;7.65;;;21.50;99.90;;;;;;5103172;27;36616;-59
2022/09/07 10:39:35;;;;;;;9.60;8.10;;;21.70;99.90;;;;;;5102673;27;39028;-59
2022/09/07 10:42:17;;;;;;;8.82;7.35;;;21.90;99.90;;;;;;5103191;27;37617;-58
2022/09/07 10:45:00;;;;;;;9.63;7.32;;;22.00;99.90;;;;;;5103357;27;37953;-58
2022/09/07 10:47:41;;;;;;;8.85;6.38;;;22.10;99.90;;;;;;5102365;27;36501;-58
2022/09/07 10:50:13;;;;;;;10.02;6.97;;;22.20;99.90;;;;;;5102414;27;38397;-58
2022/09/07 10:52:48;;;;;;;9.20;6.63;;;22.30;99.90;;;;;;5103162;27;38114;-59
2022/09/07 10:55:24;;;;;;;8.77;6.00;;;22.40;99.90;;;;;;5103679;27;38472;-58
2022/09/07 10:58:06;;;;;;;7.72;5.85;;;22.50;99.90;;;;;;5104426;27;36373;-58
2022/09/07 11:00:42;;;;;;;8.27;5.97;;;22.60;99.90;;;;;;5103937;27;37572;-58
2022/09/07 11:03:24;;;;;;;8.30;5.45;;;22.70;99.90;;;;;;5102081;27;37476;-59
2022/09/07 11:06:04;;;;;;;8.68;5.72;;;22.70;99.90;;;;;;5100734;27;38149;-58
2022/09/07 11:08:43;;;;;;;7.80;4.78;;;22.80;99.90;;;;;;5101380;27;36570;-59
2022/09/07 11:11:17;;;;;;;7.85;5.15;;;22.80;99.90;;;;;;5098765;27;39574;-58
2022/09/07 11:13:47;;;;;;;8.68;5.32;;;22.70;99.90;;;;;;5096639;27;38295;-58
2022/09/07 11:16:21;;;;;;;7.63;5.13;;;22.80;99.90;;;;;;5099436;27;37537;-59
2022/09/07 11:18:53;;;;;;;7.28;4.97;;;22.80;99.90;;;;;;5099405;27;36593;-58
2022/09/07 11:21:25;;;;;;;5.63;4.30;;;22.80;99.90;;;;;;5099035;27;36580;-59
2022/09/07 11:23:59;;;;;;;6.40;3.42;;;22.90;99.90;;;;;;5101868;27;36678;-58
2022/09/07 11:26:35;;;;;;;5.45;3.42;;;23.00;99.90;;;;;;5101068;27;37028;-59
2022/09/07 11:29:13;;;;;;;6.10;3.95;;;23.20;99.90;;;;;;5100204;27;38911;-59
2022/09/07 11:31:45;;;;;;;6.25;3.53;;;23.20;99.90;;;;;;5099244;27;37406;-58
2022/09/07 11:34:16;;;;;;;4.85;2.80;;;23.20;99.90;;;;;;5098777;27;38343;-58
2022/09/07 11:36:50;;;;;;;5.93;3.50;;;23.10;99.90;;;;;;5098347;27;37333;-58
2022/09/07 11:39:24;;;;;;;5.28;2.70;;;23.00;99.90;;;;;;5098586;27;37805;-58
2022/09/07 11:42:00;;;;;;;4.28;2.30;;;23.00;99.90;;;;;;5097527;27;37498;-58
2022/09/07 11:44:44;;;;;;;4.75;2.28;;;23.00;99.90;;;;;;5098426;27;36660;-58
2022/09/07 11:47:22;;;;;;;4.47;2.25;;;23.00;99.90;;;;;;5097762;27;38181;-58
2022/09/07 11:49:53;;;;;;;7.18;2.55;;;22.90;99.90;;;;;;5097529;27;36595;-58
2022/09/07 11:52:31;;;;;;;3.75;1.88;;;22.80;99.90;;;;;;5097444;27;37526;-58
2022/09/07 11:55:02;;;;;;;4.50;2.10;;;22.70;99.90;;;;;;5097110;27;37793;-58
2022/09/07 11:57:42;;;;;;;4.05;1.65;;;22.70;99.90;;;;;;5099870;27;37218;-59
2022/09/07 12:00:17;;;;;;;5.40;1.60;;;22.60;99.90;;;;;;5102567;27;36942;-58
2022/09/07 12:03:20;;;;;;;3.45;1.40;;;22.70;99.90;;;;;;5100818;27;37450;-58
2022/09/07 12:06:22;;;;;;;3.65;1.38;;;22.70;99.90;;;;;;5092538;27;36422;-59
2022/09/07 12:09:02;;;;;;;2.90;1.23;;;22.70;99.90;;;;;;5093009;27;37373;-58
2022/09/07 12:11:44;;;;;;;1.83;1.13;;;22.80;99.90;;;;;;5102601;27;37837;-58
2022/09/07 12:14:21;;;;;;;3.90;1.60;;;22.90;99.90;;;;;;5103411;27;36608;-58
2022/09/07 12:17:12;;;;;;;4.20;1.30;;;22.80;99.90;;;;;;5102831;27;37607;-58
2022/09/07 12:19:42;;;;;;;3.13;1.20;;;22.70;99.90;;;;;;5103720;27;37450;-58
2022/09/07 12:22:20;;;;;;;3.25;1.40;;;22.70;99.90;;;;;;5104148;27;37117;-58
2022/09/07 12:24:50;;;;;;;5.15;1.33;;;22.70;99.90;;;;;;5104173;27;37549;-58
2022/09/07 12:27:37;;;;;;;2.85;1.30;;;22.70;99.90;;;;;;5102312;27;37802;-58
2022/09/07 12:30:50;;;;;;;3.47;1.42;;;22.60;99.90;;;;;;5103792;27;37336;-59
2022/09/07 12:33:29;;;;;;;5.35;2.03;;;22.70;99.80;;;;;;5103390;27;36972;-58
2022/09/07 12:35:59;;;;;;;2.33;1.25;;;22.70;99.90;;;;;;5103626;27;37702;-58
2022/09/07 12:39:04;;;;;;;3.58;1.48;;;22.80;99.90;;;;;;5103975;27;38732;-58
2022/09/07 12:41:46;;;;;;;4.32;1.42;;;22.80;98.80;;;;;;5103281;27;37993;-59
2022/09/07 12:44:22;;;;;;;4.13;1.40;;;22.80;99.10;;;;;;5101520;27;37612;-58
2022/09/07 12:47:01;;;;;;;2.17;1.50;;;22.80;99.30;;;;;;5102022;27;37814;-58
2022/09/07 12:50:04;;;;;;;3.20;1.23;;;22.80;99.00;;;;;;5103438;27;38122;-58
2022/09/07 12:53:08;;;;;;;4.07;1.63;;;22.90;98.60;;;;;;5104182;27;37390;-58
2022/09/07 12:56:06;;;;;;;3.55;1.38;;;22.90;98.30;;;;;;5102575;27;36531;-58
2022/09/07 12:58:44;;;;;;;2.40;1.13;;;23.00;98.60;;;;;;5102172;27;37678;-58
2022/09/07 13:01:36;;;;;;;3.83;1.38;;;23.00;98.50;;;;;;5101684;27;36614;-59
2022/09/07 13:04:28;;;;;;;2.95;1.30;;;22.90;97.70;;;;;;5096046;27;39056;-58